sensor_id;sensor_type;location;lat;lon;timestamp;P1;durP1;ratioP1;P2;durP2;ratioP2
32625;SDS011;19038;50.922;11.880;2022-07-29T00:04:47;2.50;;;1.90;;
32625;SDS011;19038;50.922;11.880;2022-07-29T00:09:47;4.17;;;2.50;;
32625;SDS011;19038;50.922;11.880;2022-07-29T00:14:47;2.33;;;1.50;;
32625;SDS011;19038;50.922;11.880;2022-07-29T00:19:47;2.40;;;1.80;;
32625;SDS011;19038;50.922;11.880;2022-07-29T00:24:47;4.20;;;2.00;;
32625;SDS011;19038;50.922;11.880;2022-07-29T00:29:47;5.17;;;1.97;;
32625;SDS011;19038;50.922;11.880;2022-07-29T00:34:47;5.30;;;1.90;;
32625;SDS011;19038;50.922;11.880;2022-07-29T00:39:47;2.03;;;1.60;;
32625;SDS011;19038;50.922;11.880;2022-07-29T00:44:47;3.57;;;2.00;;
32625;SDS011;19038;50.922;11.880;2022-07-29T00:49:47;2.40;;;2.20;;
32625;SDS011;19038;50.922;11.880;2022-07-29T00:54:47;2.97;;;1.83;;
32625;SDS011;19038;50.922;11.880;2022-07-29T00:59:47;2.33;;;1.70;;
32625;SDS011;19038;50.922;11.880;2022-07-29T01:04:47;1.90;;;1.80;;
32625;SDS011;19038;50.922;11.880;2022-07-29T01:09:47;3.73;;;1.93;;
32625;SDS011;19038;50.922;11.880;2022-07-29T01:14:47;2.10;;;1.90;;
32625;SDS011;19038;50.922;11.880;2022-07-29T01:19:51;3.40;;;1.97;;
32625;SDS011;19038;50.922;11.880;2022-07-29T01:34:49;4.87;;;2.57;;
32625;SDS011;19038;50.922;11.880;2022-07-29T01:39:47;2.80;;;2.07;;
32625;SDS011;19038;50.922;11.880;2022-07-29T01:44:50;4.40;;;2.37;;
32625;SDS011;19038;50.922;11.880;2022-07-29T01:49:50;2.57;;;2.00;;
32625;SDS011;19038;50.922;11.880;2022-07-29T01:54:49;3.00;;;2.00;;
32625;SDS011;19038;50.922;11.880;2022-07-29T01:59:47;3.53;;;2.40;;
32625;SDS011;19038;50.922;11.880;2022-07-29T02:04:47;2.33;;;2.13;;
32625;SDS011;19038;50.922;11.880;2022-07-29T02:09:47;6.53;;;2.37;;
32625;SDS011;19038;50.922;11.880;2022-07-29T02:14:48;6.37;;;2.20;;
32625;SDS011;19038;50.922;11.880;2022-07-29T02:19:47;2.90;;;2.17;;
32625;SDS011;19038;50.922;11.880;2022-07-29T02:24:47;5.00;;;2.30;;
32625;SDS011;19038;50.922;11.880;2022-07-29T02:29:47;3.10;;;2.20;;
32625;SDS011;19038;50.922;11.880;2022-07-29T02:34:47;3.37;;;2.20;;
32625;SDS011;19038;50.922;11.880;2022-07-29T02:39:47;2.13;;;1.90;;
32625;SDS011;19038;50.922;11.880;2022-07-29T02:44:47;4.00;;;2.47;;
32625;SDS011;19038;50.922;11.880;2022-07-29T02:49:52;2.53;;;2.33;;
32625;SDS011;19038;50.922;11.880;2022-07-29T02:59:47;3.70;;;2.10;;
32625;SDS011;19038;50.922;11.880;2022-07-29T03:04:47;3.53;;;2.30;;
32625;SDS011;19038;50.922;11.880;2022-07-29T03:09:47;4.63;;;2.63;;
32625;SDS011;19038;50.922;11.880;2022-07-29T03:14:47;2.80;;;2.23;;
32625;SDS011;19038;50.922;11.880;2022-07-29T03:19:47;4.40;;;2.50;;
32625;SDS011;19038;50.922;11.880;2022-07-29T03:24:47;3.57;;;2.90;;
32625;SDS011;19038;50.922;11.880;2022-07-29T03:29:47;4.70;;;2.33;;
32625;SDS011;19038;50.922;11.880;2022-07-29T03:34:47;3.10;;;2.50;;
32625;SDS011;19038;50.922;11.880;2022-07-29T03:39:47;5.57;;;2.30;;
32625;SDS011;19038;50.922;11.880;2022-07-29T03:44:47;4.70;;;2.27;;
32625;SDS011;19038;50.922;11.880;2022-07-29T03:49:48;2.80;;;2.50;;
32625;SDS011;19038;50.922;11.880;2022-07-29T03:54:47;2.33;;;2.10;;
32625;SDS011;19038;50.922;11.880;2022-07-29T03:59:47;5.20;;;2.80;;
32625;SDS011;19038;50.922;11.880;2022-07-29T04:04:47;3.60;;;2.80;;
32625;SDS011;19038;50.922;11.880;2022-07-29T04:09:47;2.60;;;2.17;;
32625;SDS011;19038;50.922;11.880;2022-07-29T04:14:47;6.70;;;3.07;;
32625;SDS011;19038;50.922;11.880;2022-07-29T04:19:47;3.40;;;1.93;;
32625;SDS011;19038;50.922;11.880;2022-07-29T04:24:47;3.47;;;2.47;;
32625;SDS011;19038;50.922;11.880;2022-07-29T04:29:47;3.80;;;2.40;;
32625;SDS011;19038;50.922;11.880;2022-07-29T04:34:47;2.90;;;2.70;;
32625;SDS011;19038;50.922;11.880;2022-07-29T04:39:47;4.17;;;3.83;;
32625;SDS011;19038;50.922;11.880;2022-07-29T04:44:47;5.07;;;3.40;;
32625;SDS011;19038;50.922;11.880;2022-07-29T04:49:47;4.13;;;2.70;;
32625;SDS011;19038;50.922;11.880;2022-07-29T04:54:47;3.20;;;2.67;;
32625;SDS011;19038;50.922;11.880;2022-07-29T04:59:47;3.27;;;2.83;;
32625;SDS011;19038;50.922;11.880;2022-07-29T05:04:47;4.23;;;3.20;;
32625;SDS011;19038;50.922;11.880;2022-07-29T05:09:47;4.00;;;3.00;;
32625;SDS011;19038;50.922;11.880;2022-07-29T05:14:47;4.23;;;2.77;;
32625;SDS011;19038;50.922;11.880;2022-07-29T05:19:47;5.43;;;2.53;;
32625;SDS011;19038;50.922;11.880;2022-07-29T05:24:47;2.90;;;2.60;;
32625;SDS011;19038;50.922;11.880;2022-07-29T05:29:48;5.73;;;2.80;;
32625;SDS011;19038;50.922;11.880;2022-07-29T05:34:47;4.67;;;2.80;;
32625;SDS011;19038;50.922;11.880;2022-07-29T05:39:48;6.27;;;2.60;;
32625;SDS011;19038;50.922;11.880;2022-07-29T05:44:48;4.10;;;2.70;;
32625;SDS011;19038;50.922;11.880;2022-07-29T05:49:47;4.23;;;2.87;;
32625;SDS011;19038;50.922;11.880;2022-07-29T05:54:48;2.83;;;2.60;;
32625;SDS011;19038;50.922;11.880;2022-07-29T05:59:48;4.27;;;2.90;;
32625;SDS011;19038;50.922;11.880;2022-07-29T06:04:48;4.17;;;2.60;;
32625;SDS011;19038;50.922;11.880;2022-07-29T06:09:48;4.43;;;2.93;;
32625;SDS011;19038;50.922;11.880;2022-07-29T06:14:48;3.20;;;2.33;;
32625;SDS011;19038;50.922;11.880;2022-07-29T06:19:48;5.23;;;3.00;;
32625;SDS011;19038;50.922;11.880;2022-07-29T06:24:48;5.27;;;3.10;;
32625;SDS011;19038;50.922;11.880;2022-07-29T06:29:48;3.10;;;2.80;;
32625;SDS011;19038;50.922;11.880;2022-07-29T06:34:48;3.20;;;2.90;;
32625;SDS011;19038;50.922;11.880;2022-07-29T06:39:48;4.73;;;3.00;;
32625;SDS011;19038;50.922;11.880;2022-07-29T06:44:48;7.00;;;3.20;;
32625;SDS011;19038;50.922;11.880;2022-07-29T06:49:48;6.73;;;3.70;;
32625;SDS011;19038;50.922;11.880;2022-07-29T06:54:48;4.70;;;4.10;;
32625;SDS011;19038;50.922;11.880;2022-07-29T06:59:48;4.57;;;4.13;;
32625;SDS011;19038;50.922;11.880;2022-07-29T07:04:48;4.60;;;4.20;;
32625;SDS011;19038;50.922;11.880;2022-07-29T07:09:48;6.57;;;4.60;;
32625;SDS011;19038;50.922;11.880;2022-07-29T07:14:48;5.67;;;4.00;;
32625;SDS011;19038;50.922;11.880;2022-07-29T07:19:48;4.43;;;4.03;;
32625;SDS011;19038;50.922;11.880;2022-07-29T07:24:48;4.27;;;3.70;;
32625;SDS011;19038;50.922;11.880;2022-07-29T07:29:48;6.27;;;4.63;;
32625;SDS011;19038;50.922;11.880;2022-07-29T07:34:48;4.47;;;4.07;;
32625;SDS011;19038;50.922;11.880;2022-07-29T07:39:48;5.70;;;4.40;;
32625;SDS011;19038;50.922;11.880;2022-07-29T07:44:48;5.53;;;5.00;;
32625;SDS011;19038;50.922;11.880;2022-07-29T07:49:48;6.10;;;4.07;;
32625;SDS011;19038;50.922;11.880;2022-07-29T07:54:48;7.70;;;4.00;;
32625;SDS011;19038;50.922;11.880;2022-07-29T07:59:48;5.67;;;4.10;;
32625;SDS011;19038;50.922;11.880;2022-07-29T08:04:48;6.80;;;4.27;;
32625;SDS011;19038;50.922;11.880;2022-07-29T08:09:48;9.00;;;3.93;;
32625;SDS011;19038;50.922;11.880;2022-07-29T08:14:48;4.70;;;3.33;;
32625;SDS011;19038;50.922;11.880;2022-07-29T08:19:48;3.70;;;3.17;;
32625;SDS011;19038;50.922;11.880;2022-07-29T08:24:48;4.60;;;3.67;;
32625;SDS011;19038;50.922;11.880;2022-07-29T08:29:48;4.13;;;3.50;;
32625;SDS011;19038;50.922;11.880;2022-07-29T08:34:48;6.33;;;3.40;;
32625;SDS011;19038;50.922;11.880;2022-07-29T08:39:48;4.03;;;3.23;;
32625;SDS011;19038;50.922;11.880;2022-07-29T08:44:48;7.67;;;4.13;;
32625;SDS011;19038;50.922;11.880;2022-07-29T08:49:48;4.17;;;3.07;;
32625;SDS011;19038;50.922;11.880;2022-07-29T08:54:48;3.57;;;3.27;;
32625;SDS011;19038;50.922;11.880;2022-07-29T08:59:48;3.93;;;3.17;;
32625;SDS011;19038;50.922;11.880;2022-07-29T09:04:48;6.93;;;3.43;;
32625;SDS011;19038;50.922;11.880;2022-07-29T09:09:48;3.50;;;3.20;;
32625;SDS011;19038;50.922;11.880;2022-07-29T09:14:48;6.33;;;3.10;;
32625;SDS011;19038;50.922;11.880;2022-07-29T09:19:48;4.97;;;3.37;;
32625;SDS011;19038;50.922;11.880;2022-07-29T09:24:48;3.87;;;3.07;;
32625;SDS011;19038;50.922;11.880;2022-07-29T09:34:48;6.87;;;3.30;;
32625;SDS011;19038;50.922;11.880;2022-07-29T09:39:48;5.13;;;3.90;;
32625;SDS011;19038;50.922;11.880;2022-07-29T09:44:49;6.87;;;3.50;;
32625;SDS011;19038;50.922;11.880;2022-07-29T09:49:51;6.70;;;3.53;;
32625;SDS011;19038;50.922;11.880;2022-07-29T09:54:48;4.40;;;3.87;;
32625;SDS011;19038;50.922;11.880;2022-07-29T10:04:48;5.63;;;3.90;;
32625;SDS011;19038;50.922;11.880;2022-07-29T10:09:51;4.93;;;3.83;;
32625;SDS011;19038;50.922;11.880;2022-07-29T10:14:48;7.53;;;3.93;;
32625;SDS011;19038;50.922;11.880;2022-07-29T10:19:48;5.90;;;3.53;;
32625;SDS011;19038;50.922;11.880;2022-07-29T10:24:48;6.93;;;3.83;;
32625;SDS011;19038;50.922;11.880;2022-07-29T10:29:48;5.77;;;3.40;;
32625;SDS011;19038;50.922;11.880;2022-07-29T10:44:48;6.27;;;3.00;;
32625;SDS011;19038;50.922;11.880;2022-07-29T10:54:48;4.13;;;3.70;;
32625;SDS011;19038;50.922;11.880;2022-07-29T10:59:49;4.90;;;3.73;;
32625;SDS011;19038;50.922;11.880;2022-07-29T11:14:55;5.50;;;4.10;;
32625;SDS011;19038;50.922;11.880;2022-07-29T11:19:48;3.83;;;3.53;;
32625;SDS011;19038;50.922;11.880;2022-07-29T11:25:03;4.90;;;4.07;;
32625;SDS011;19038;50.922;11.880;2022-07-29T11:29:50;4.60;;;4.20;;
32625;SDS011;19038;50.922;11.880;2022-07-29T11:34:48;4.90;;;4.40;;
32625;SDS011;19038;50.922;11.880;2022-07-29T11:49:48;5.20;;;4.50;;
32625;SDS011;19038;50.922;11.880;2022-07-29T11:54:48;5.60;;;5.17;;
32625;SDS011;19038;50.922;11.880;2022-07-29T11:59:48;5.70;;;5.00;;
32625;SDS011;19038;50.922;11.880;2022-07-29T12:04:52;5.57;;;5.07;;
32625;SDS011;19038;50.922;11.880;2022-07-29T12:09:50;6.17;;;5.13;;
32625;SDS011;19038;50.922;11.880;2022-07-29T12:14:48;8.20;;;4.90;;
32625;SDS011;19038;50.922;11.880;2022-07-29T12:19:48;6.10;;;5.70;;
32625;SDS011;19038;50.922;11.880;2022-07-29T12:24:48;5.70;;;5.30;;
32625;SDS011;19038;50.922;11.880;2022-07-29T12:34:48;7.43;;;5.40;;
32625;SDS011;19038;50.922;11.880;2022-07-29T12:39:48;6.00;;;5.40;;
32625;SDS011;19038;50.922;11.880;2022-07-29T12:44:48;6.10;;;5.60;;
32625;SDS011;19038;50.922;11.880;2022-07-29T12:49:48;6.03;;;5.60;;
32625;SDS011;19038;50.922;11.880;2022-07-29T12:54:48;6.47;;;5.83;;
32625;SDS011;19038;50.922;11.880;2022-07-29T13:00:22;6.77;;;6.10;;
32625;SDS011;19038;50.922;11.880;2022-07-29T13:09:48;6.20;;;5.60;;
32625;SDS011;19038;50.922;11.880;2022-07-29T13:14:48;5.87;;;5.47;;
32625;SDS011;19038;50.922;11.880;2022-07-29T13:19:49;7.10;;;6.17;;
32625;SDS011;19038;50.922;11.880;2022-07-29T13:24:49;5.77;;;5.27;;
32625;SDS011;19038;50.922;11.880;2022-07-29T13:29:48;5.67;;;5.27;;
32625;SDS011;19038;50.922;11.880;2022-07-29T13:32:16;7.00;;;5.57;;
32625;SDS011;19038;50.922;11.880;2022-07-29T13:37:17;7.33;;;5.97;;
32625;SDS011;19038;50.922;11.880;2022-07-29T13:42:16;6.07;;;5.57;;
32625;SDS011;19038;50.922;11.880;2022-07-29T13:47:16;6.70;;;6.07;;
32625;SDS011;19038;50.922;11.880;2022-07-29T13:52:16;6.17;;;5.60;;
32625;SDS011;19038;50.922;11.880;2022-07-29T13:57:16;6.00;;;5.50;;
32625;SDS011;19038;50.922;11.880;2022-07-29T14:02:16;6.40;;;5.50;;
32625;SDS011;19038;50.922;11.880;2022-07-29T14:07:16;6.70;;;5.70;;
32625;SDS011;19038;50.922;11.880;2022-07-29T14:12:16;6.37;;;5.53;;
32625;SDS011;19038;50.922;11.880;2022-07-29T14:17:16;7.00;;;5.70;;
32625;SDS011;19038;50.922;11.880;2022-07-29T14:22:16;6.57;;;5.97;;
32625;SDS011;19038;50.922;11.880;2022-07-29T14:27:16;5.43;;;5.03;;
32625;SDS011;19038;50.922;11.880;2022-07-29T14:32:16;5.90;;;5.40;;
32625;SDS011;19038;50.922;11.880;2022-07-29T14:37:16;5.80;;;5.30;;
32625;SDS011;19038;50.922;11.880;2022-07-29T14:42:16;4.80;;;4.50;;
32625;SDS011;19038;50.922;11.880;2022-07-29T14:47:16;4.70;;;4.30;;
32625;SDS011;19038;50.922;11.880;2022-07-29T14:52:16;3.80;;;3.60;;
32625;SDS011;19038;50.922;11.880;2022-07-29T14:57:16;4.20;;;3.60;;
32625;SDS011;19038;50.922;11.880;2022-07-29T15:02:16;3.73;;;3.43;;
32625;SDS011;19038;50.922;11.880;2022-07-29T15:07:16;2.90;;;2.70;;
32625;SDS011;19038;50.922;11.880;2022-07-29T15:12:16;2.33;;;2.13;;
32625;SDS011;19038;50.922;11.880;2022-07-29T15:17:16;2.23;;;2.00;;
32625;SDS011;19038;50.922;11.880;2022-07-29T15:22:16;2.10;;;2.00;;
32625;SDS011;19038;50.922;11.880;2022-07-29T15:27:17;2.47;;;2.27;;
32625;SDS011;19038;50.922;11.880;2022-07-29T15:32:16;2.50;;;2.30;;
32625;SDS011;19038;50.922;11.880;2022-07-29T15:37:16;2.73;;;2.50;;
32625;SDS011;19038;50.922;11.880;2022-07-29T15:42:16;2.80;;;2.43;;
32625;SDS011;19038;50.922;11.880;2022-07-29T15:47:16;3.20;;;2.60;;
32625;SDS011;19038;50.922;11.880;2022-07-29T15:52:17;2.70;;;2.50;;
32625;SDS011;19038;50.922;11.880;2022-07-29T15:57:16;3.00;;;2.80;;
32625;SDS011;19038;50.922;11.880;2022-07-29T16:02:16;4.33;;;3.93;;
32625;SDS011;19038;50.922;11.880;2022-07-29T16:07:16;3.93;;;3.40;;
32625;SDS011;19038;50.922;11.880;2022-07-29T16:12:16;4.57;;;3.33;;
32625;SDS011;19038;50.922;11.880;2022-07-29T16:17:16;3.57;;;3.27;;
32625;SDS011;19038;50.922;11.880;2022-07-29T16:22:16;4.10;;;3.70;;
32625;SDS011;19038;50.922;11.880;2022-07-29T16:27:16;4.17;;;3.87;;
32625;SDS011;19038;50.922;11.880;2022-07-29T16:32:16;4.03;;;3.73;;
32625;SDS011;19038;50.922;11.880;2022-07-29T16:37:16;4.13;;;3.83;;
32625;SDS011;19038;50.922;11.880;2022-07-29T16:42:16;4.43;;;4.13;;
32625;SDS011;19038;50.922;11.880;2022-07-29T16:47:16;4.00;;;3.70;;
32625;SDS011;19038;50.922;11.880;2022-07-29T16:52:16;3.70;;;3.40;;
32625;SDS011;19038;50.922;11.880;2022-07-29T16:57:17;4.50;;;4.20;;
32625;SDS011;19038;50.922;11.880;2022-07-29T17:02:16;4.73;;;4.40;;
32625;SDS011;19038;50.922;11.880;2022-07-29T17:07:16;4.33;;;3.93;;
32625;SDS011;19038;50.922;11.880;2022-07-29T17:12:16;4.57;;;4.10;;
32625;SDS011;19038;50.922;11.880;2022-07-29T17:17:16;4.53;;;3.70;;
32625;SDS011;19038;50.922;11.880;2022-07-29T17:22:16;3.60;;;3.40;;
32625;SDS011;19038;50.922;11.880;2022-07-29T17:27:16;3.30;;;3.10;;
32625;SDS011;19038;50.922;11.880;2022-07-29T17:32:16;3.30;;;3.10;;
32625;SDS011;19038;50.922;11.880;2022-07-29T17:37:16;3.60;;;3.30;;
32625;SDS011;19038;50.922;11.880;2022-07-29T17:42:16;3.60;;;3.30;;
32625;SDS011;19038;50.922;11.880;2022-07-29T17:47:16;3.43;;;3.23;;
32625;SDS011;19038;50.922;11.880;2022-07-29T17:52:16;3.63;;;3.40;;
32625;SDS011;19038;50.922;11.880;2022-07-29T17:57:16;3.80;;;3.50;;
32625;SDS011;19038;50.922;11.880;2022-07-29T18:02:16;4.10;;;3.80;;
32625;SDS011;19038;50.922;11.880;2022-07-29T18:07:16;4.13;;;3.77;;
32625;SDS011;19038;50.922;11.880;2022-07-29T18:12:16;3.93;;;3.73;;
32625;SDS011;19038;50.922;11.880;2022-07-29T18:17:16;4.00;;;3.70;;
32625;SDS011;19038;50.922;11.880;2022-07-29T18:22:16;4.07;;;3.77;;
32625;SDS011;19038;50.922;11.880;2022-07-29T18:27:16;4.33;;;3.90;;
32625;SDS011;19038;50.922;11.880;2022-07-29T18:32:16;4.13;;;3.73;;
32625;SDS011;19038;50.922;11.880;2022-07-29T18:37:16;4.27;;;3.87;;
32625;SDS011;19038;50.922;11.880;2022-07-29T18:42:16;4.17;;;3.87;;
32625;SDS011;19038;50.922;11.880;2022-07-29T18:47:16;4.20;;;3.80;;
32625;SDS011;19038;50.922;11.880;2022-07-29T18:52:17;5.90;;;3.90;;
32625;SDS011;19038;50.922;11.880;2022-07-29T18:57:16;4.63;;;4.33;;
32625;SDS011;19038;50.922;11.880;2022-07-29T19:02:16;4.67;;;4.23;;
32625;SDS011;19038;50.922;11.880;2022-07-29T19:07:17;5.73;;;4.13;;
32625;SDS011;19038;50.922;11.880;2022-07-29T19:12:16;4.30;;;4.00;;
32625;SDS011;19038;50.922;11.880;2022-07-29T19:17:16;4.60;;;4.30;;
32625;SDS011;19038;50.922;11.880;2022-07-29T19:22:17;3.93;;;3.73;;
32625;SDS011;19038;50.922;11.880;2022-07-29T19:27:16;4.27;;;3.87;;
32625;SDS011;19038;50.922;11.880;2022-07-29T19:32:16;4.13;;;3.80;;
32625;SDS011;19038;50.922;11.880;2022-07-29T19:37:16;4.50;;;4.20;;
32625;SDS011;19038;50.922;11.880;2022-07-29T19:42:16;4.30;;;3.90;;
32625;SDS011;19038;50.922;11.880;2022-07-29T19:47:16;4.30;;;4.00;;
32625;SDS011;19038;50.922;11.880;2022-07-29T19:52:16;4.30;;;4.00;;
32625;SDS011;19038;50.922;11.880;2022-07-29T19:57:16;4.40;;;4.10;;
32625;SDS011;19038;50.922;11.880;2022-07-29T20:02:16;4.70;;;3.97;;
32625;SDS011;19038;50.922;11.880;2022-07-29T20:07:16;4.37;;;4.07;;
32625;SDS011;19038;50.922;11.880;2022-07-29T20:12:16;4.60;;;4.20;;
32625;SDS011;19038;50.922;11.880;2022-07-29T20:17:17;4.90;;;4.40;;
32625;SDS011;19038;50.922;11.880;2022-07-29T20:22:16;4.40;;;4.10;;
32625;SDS011;19038;50.922;11.880;2022-07-29T20:27:16;4.13;;;3.83;;
32625;SDS011;19038;50.922;11.880;2022-07-29T20:32:16;4.27;;;3.97;;
32625;SDS011;19038;50.922;11.880;2022-07-29T20:37:16;4.60;;;4.30;;
32625;SDS011;19038;50.922;11.880;2022-07-29T20:42:16;4.17;;;3.87;;
32625;SDS011;19038;50.922;11.880;2022-07-29T20:47:16;4.40;;;3.90;;
32625;SDS011;19038;50.922;11.880;2022-07-29T20:52:16;3.60;;;3.30;;
32625;SDS011;19038;50.922;11.880;2022-07-29T20:57:16;4.07;;;3.77;;
32625;SDS011;19038;50.922;11.880;2022-07-29T21:02:16;3.60;;;3.30;;
32625;SDS011;19038;50.922;11.880;2022-07-29T21:07:16;3.73;;;3.43;;
32625;SDS011;19038;50.922;11.880;2022-07-29T21:12:16;3.43;;;3.23;;
32625;SDS011;19038;50.922;11.880;2022-07-29T21:17:16;3.47;;;3.20;;
32625;SDS011;19038;50.922;11.880;2022-07-29T21:22:18;3.77;;;3.47;;
32625;SDS011;19038;50.922;11.880;2022-07-29T21:27:16;3.40;;;3.20;;
32625;SDS011;19038;50.922;11.880;2022-07-29T21:32:16;3.60;;;3.40;;
32625;SDS011;19038;50.922;11.880;2022-07-29T21:37:16;3.93;;;3.70;;
32625;SDS011;19038;50.922;11.880;2022-07-29T21:42:16;4.00;;;3.70;;
32625;SDS011;19038;50.922;11.880;2022-07-29T21:47:16;3.23;;;3.03;;
32625;SDS011;19038;50.922;11.880;2022-07-29T21:52:16;3.70;;;3.40;;
32625;SDS011;19038;50.922;11.880;2022-07-29T21:57:16;3.93;;;3.60;;
32625;SDS011;19038;50.922;11.880;2022-07-29T22:02:16;4.03;;;3.33;;
32625;SDS011;19038;50.922;11.880;2022-07-29T22:07:16;4.07;;;3.37;;
32625;SDS011;19038;50.922;11.880;2022-07-29T22:12:17;3.93;;;3.53;;
32625;SDS011;19038;50.922;11.880;2022-07-29T22:17:16;2.87;;;2.67;;
32625;SDS011;19038;50.922;11.880;2022-07-29T22:22:17;4.57;;;2.80;;
32625;SDS011;19038;50.922;11.880;2022-07-29T22:27:16;3.43;;;3.13;;
32625;SDS011;19038;50.922;11.880;2022-07-29T22:32:17;4.50;;;2.70;;
32625;SDS011;19038;50.922;11.880;2022-07-29T22:37:17;3.13;;;2.93;;
32625;SDS011;19038;50.922;11.880;2022-07-29T22:42:17;3.17;;;2.97;;
32625;SDS011;19038;50.922;11.880;2022-07-29T22:47:17;3.23;;;3.00;;
32625;SDS011;19038;50.922;11.880;2022-07-29T22:52:17;3.07;;;2.87;;
32625;SDS011;19038;50.922;11.880;2022-07-29T22:57:17;3.17;;;2.97;;
32625;SDS011;19038;50.922;11.880;2022-07-29T23:02:17;3.70;;;3.47;;
32625;SDS011;19038;50.922;11.880;2022-07-29T23:07:17;3.50;;;3.10;;
32625;SDS011;19038;50.922;11.880;2022-07-29T23:12:17;3.60;;;3.30;;
32625;SDS011;19038;50.922;11.880;2022-07-29T23:17:17;3.50;;;3.20;;
32625;SDS011;19038;50.922;11.880;2022-07-29T23:22:17;3.53;;;3.23;;
32625;SDS011;19038;50.922;11.880;2022-07-29T23:27:17;3.50;;;3.20;;
32625;SDS011;19038;50.922;11.880;2022-07-29T23:32:17;3.80;;;3.37;;
32625;SDS011;19038;50.922;11.880;2022-07-29T23:37:17;3.97;;;3.67;;
32625;SDS011;19038;50.922;11.880;2022-07-29T23:42:17;3.77;;;3.57;;
32625;SDS011;19038;50.922;11.880;2022-07-29T23:47:17;3.90;;;3.60;;
32625;SDS011;19038;50.922;11.880;2022-07-29T23:52:17;3.60;;;3.30;;
32625;SDS011;19038;50.922;11.880;2022-07-29T23:57:17;4.00;;;3.70;;
